Orbital elements of COSMOS 2301
| Launched | 25 December 1994 |
| Flight ended | – |
| Launch site | Plesetsk Missile and Space Complex, Russia |
| Owner | Commonwealth of Independent States (former USSR) |
| NORAD ID | 23443 |
| Date fetched |
Epoch osculation |
Inc. [°] |
Ecc. | RA asc node [hr] |
Arg Peri. [°] |
Mean anom [°] |
Mean motion [rev/day] |
Abs. mag |
| Date fetched |
Epoch osculation |
Inc. [°] |
Ecc. | RA asc node [hr] |
Arg Peri. [°] |
Mean anom [°] |
Mean motion [rev/day] |
Abs. mag |
| 2026 May 05 17:57 | 2026 May 05 12:43:36 | 82.5741 | 0.00009 | 23.2033 | 238.3688 | 138.5510 | 12.62226 | 6.743 |
| 2026 May 04 17:57 | 2026 Apr 30 14:50:08 | 82.5750 | 0.00008 | 23.4124 | 264.3765 | 138.5510 | 12.62226 | 6.743 |
| 2026 May 03 17:57 | 2026 Apr 30 14:50:08 | 82.5750 | 0.00008 | 23.4124 | 264.3765 | 138.5510 | 12.62226 | 6.743 |
| 2026 May 02 17:57 | 2026 Apr 30 14:50:08 | 82.5750 | 0.00008 | 23.4124 | 264.3765 | 138.5510 | 12.62226 | 6.743 |
| 2026 May 01 17:56 | 2026 Apr 30 14:50:08 | 82.5750 | 0.00008 | 23.4124 | 264.3765 | 138.5510 | 12.62226 | 6.743 |
| 2026 Apr 30 17:56 | 2026 Apr 30 14:50:08 | 82.5750 | 0.00008 | 23.4124 | 264.3765 | 138.5510 | 12.62226 | 6.743 |
| 2026 Apr 29 17:57 | 2026 Apr 24 05:14:29 | 82.5758 | 0.00009 | 23.6848 | 297.7607 | 138.5510 | 12.62226 | 6.743 |
| 2026 Apr 28 17:56 | 2026 Apr 24 05:14:29 | 82.5758 | 0.00009 | 23.6848 | 297.7607 | 138.5510 | 12.62226 | 6.743 |
| 2026 Apr 27 17:58 | 2026 Apr 24 05:14:29 | 82.5758 | 0.00009 | 23.6848 | 297.7607 | 138.5510 | 12.62226 | 6.743 |
| 2026 Apr 26 17:58 | 2026 Apr 24 05:14:29 | 82.5758 | 0.00009 | 23.6848 | 297.7607 | 138.5510 | 12.62226 | 6.743 |
| 2026 Apr 25 17:58 | 2026 Apr 24 05:14:29 | 82.5758 | 0.00009 | 23.6848 | 297.7607 | 138.5510 | 12.62226 | 6.743 |
| 2026 Apr 24 17:59 | 2026 Apr 24 05:14:29 | 82.5758 | 0.00009 | 23.6848 | 297.7607 | 138.5510 | 12.62226 | 6.743 |
| 2026 Apr 23 17:57 | 2026 Apr 19 03:39:37 | 82.5767 | 0.00011 | 23.9003 | 318.3837 | 138.5510 | 12.62226 | 6.743 |
| 2026 Apr 22 17:57 | 2026 Apr 19 03:39:37 | 82.5767 | 0.00011 | 23.9003 | 318.3837 | 138.5510 | 12.62226 | 6.743 |
| 2026 Apr 21 17:57 | 2026 Apr 19 03:39:37 | 82.5767 | 0.00011 | 23.9003 | 318.3837 | 138.5510 | 12.62226 | 6.743 |
| 2026 Apr 20 17:57 | 2026 Apr 19 03:39:37 | 82.5767 | 0.00011 | 23.9003 | 318.3837 | 138.5510 | 12.62226 | 6.743 |
| 2026 Apr 19 17:58 | 2026 Apr 19 03:39:37 | 82.5767 | 0.00011 | 23.9003 | 318.3837 | 138.5510 | 12.62226 | 6.743 |
| 2026 Apr 18 17:56 | 2026 Apr 13 05:04:00 | 82.5773 | 0.00013 | 0.1531 | 336.4157 | 138.5510 | 12.62226 | 6.743 |
| 2026 Apr 16 17:57 | 2026 Apr 13 05:04:00 | 82.5773 | 0.00013 | 0.1531 | 336.4157 | 138.5510 | 12.62226 | 6.743 |
| 2026 Apr 14 17:57 | 2026 Apr 13 05:04:00 | 82.5773 | 0.00013 | 0.1531 | 336.4157 | 138.5510 | 12.62226 | 6.743 |
| 2026 Apr 13 17:57 | 2026 Apr 13 05:04:00 | 82.5773 | 0.00013 | 0.1531 | 336.4157 | 138.5510 | 12.62226 | 6.743 |
| 2026 Apr 12 17:57 | 2026 Apr 08 12:51:12 | 82.5777 | 0.00015 | 0.3521 | 349.7378 | 138.5510 | 12.62226 | 6.743 |
| 2026 Apr 11 17:57 | 2026 Apr 08 12:51:12 | 82.5777 | 0.00015 | 0.3521 | 349.7378 | 138.5510 | 12.62226 | 6.743 |
| 2026 Apr 10 17:58 | 2026 Apr 08 12:51:12 | 82.5777 | 0.00015 | 0.3521 | 349.7378 | 138.5510 | 12.62226 | 6.743 |
| 2026 Apr 09 18:01 | 2026 Apr 08 12:51:12 | 82.5777 | 0.00015 | 0.3521 | 349.7378 | 138.5510 | 12.62226 | 6.743 |
| 2026 Apr 08 17:57 | 2026 Apr 08 12:51:12 | 82.5777 | 0.00015 | 0.3521 | 349.7378 | 138.5510 | 12.62226 | 6.743 |